Terminal Aerodrome Forecast
Issued by NWS Wilmington, OH

Current Version | Previous Version | Graphics & Text | Print | Product List | Glossary On
Versions: 1 2 3 4 5 6 7 8 9 10 11 12 13 14 15 16 17 18 19 20 21 22 23 24 25
000
FTUS41 KILN 150900 AAC
TAFDAY
TAF AMD
KDAY 150902Z 1509/1606 18005KT P6SM OVC050
     FM151100 17006KT 4SM BR BKN050
     FM151400 16007KT 5SM BR OVC015
     FM151600 15009KT 6SM HZ OVC015
     FM152200 15010KT P6SM SCT025 OVC250
     FM160000 15009KT P6SM -RA OVC025
     FM160400 15010KT P6SM VCSH OVC015=

USA.gov is the U.S. government's official web portal to all federal, state and local government web resources and services.